createdAt,value
2023-02-28T00:01:40.717Z,5.57
2023-02-28T00:04:12.696Z,6.22
2023-02-28T00:06:44.913Z,7.22
2023-02-28T00:09:16.859Z,6.45
2023-02-28T00:11:48.853Z,6.45
2023-02-28T00:14:20.932Z,6.22
2023-02-28T00:16:52.969Z,7.15
2023-02-28T00:19:25.159Z,6.65
2023-02-28T00:21:57.264Z,6.25
2023-02-28T00:24:29.196Z,5.78
2023-02-28T00:27:01.667Z,6.05
2023-02-28T00:29:33.661Z,5.97
2023-02-28T00:32:12.452Z,6.28
2023-02-28T00:34:48.374Z,7.00
2023-02-28T00:40:12.648Z,6.05
2023-02-28T00:42:49.984Z,5.88
2023-02-28T00:45:22.032Z,6.68
2023-02-28T00:47:54.031Z,6.68
2023-02-28T00:50:26.078Z,5.57
2023-02-28T00:53:00.798Z,6.40
2023-02-28T00:55:32.861Z,6.88
2023-02-28T00:58:04.846Z,4.97
2023-02-28T01:00:36.876Z,5.60
2023-02-28T01:03:08.840Z,6.13
2023-02-28T01:05:42.089Z,6.20
2023-02-28T01:08:15.448Z,6.35
2023-02-28T01:11:00.766Z,6.38
2023-02-28T01:13:32.767Z,6.18
2023-02-28T01:16:05.281Z,6.22
2023-02-28T01:18:38.268Z,6.28
2023-02-28T01:21:16.408Z,6.18
2023-02-28T01:23:49.290Z,6.93
2023-02-28T01:26:23.614Z,6.30
2023-02-28T01:28:56.349Z,6.15
2023-02-28T01:31:28.749Z,5.85
2023-02-28T01:34:00.961Z,6.00
2023-02-28T01:36:32.972Z,6.25
2023-02-28T01:39:05.423Z,5.47
2023-02-28T01:41:37.681Z,6.28
2023-02-28T01:44:59.306Z,6.97
2023-02-28T01:47:40.247Z,6.88
2023-02-28T01:50:24.437Z,6.38
2023-02-28T01:53:01.347Z,7.07
2023-02-28T01:55:33.921Z,6.15
2023-02-28T01:58:08.265Z,6.20
2023-02-28T02:00:41.851Z,6.90
2023-02-28T02:03:20.075Z,6.55
2023-02-28T02:05:52.182Z,6.55
2023-02-28T02:08:30.310Z,6.57
2023-02-28T02:11:04.895Z,6.85
2023-02-28T02:14:01.546Z,7.22
2023-02-28T02:16:44.981Z,7.60
2023-02-28T02:20:00.958Z,7.72
2023-02-28T02:23:13.579Z,6.93
2023-02-28T02:26:22.784Z,7.20
2023-02-28T02:29:35.512Z,7.05
2023-02-28T02:33:05.205Z,7.38
2023-02-28T02:35:55.574Z,7.72
2023-02-28T02:41:53.310Z,6.88
2023-02-28T02:44:40.378Z,8.07
2023-02-28T02:47:18.863Z,6.57
2023-02-28T02:49:58.782Z,7.18
2023-02-28T02:52:43.586Z,7.85
2023-02-28T02:55:19.225Z,7.40
2023-02-28T02:58:15.547Z,7.57
2023-02-28T03:00:54.737Z,7.15
2023-02-28T03:03:29.997Z,7.60
2023-02-28T03:06:04.226Z,6.80
2023-02-28T03:08:39.124Z,7.95
2023-02-28T03:11:18.156Z,6.75
2023-02-28T03:14:41.273Z,7.55
2023-02-28T03:17:28.284Z,7.55
2023-02-28T03:20:18.499Z,8.15
2023-02-28T03:23:24.160Z,7.70
2023-02-28T03:26:15.186Z,7.60
2023-02-28T03:29:04.832Z,6.95
2023-02-28T03:32:12.513Z,7.60
2023-02-28T03:35:05.952Z,7.20
2023-02-28T03:37:47.716Z,7.18
2023-02-28T03:40:24.610Z,8.23
2023-02-28T03:43:08.982Z,7.50
2023-02-28T03:45:43.071Z,6.63
2023-02-28T03:48:23.129Z,6.95
2023-02-28T03:50:59.590Z,7.75
2023-02-28T03:53:43.744Z,6.72
2023-02-28T03:56:45.138Z,6.93
2023-02-28T03:59:28.819Z,6.90
2023-02-28T04:02:01.127Z,6.13
2023-02-28T04:04:33.424Z,6.63
2023-02-28T04:07:10.234Z,7.70
2023-02-28T04:09:44.760Z,7.10
2023-02-28T04:12:16.880Z,7.40
2023-02-28T04:14:48.871Z,7.07
2023-02-28T04:17:21.145Z,7.32
2023-02-28T04:19:53.103Z,7.07
2023-02-28T04:22:29.160Z,7.97
2023-02-28T04:25:01.101Z,6.75
2023-02-28T04:27:33.061Z,7.03
2023-02-28T04:30:12.263Z,7.35
2023-02-28T04:32:44.320Z,7.20
2023-02-28T04:35:18.042Z,7.07
2023-02-28T04:37:51.470Z,6.65
2023-02-28T04:40:23.474Z,8.18
2023-02-28T04:42:55.500Z,7.20
2023-02-28T04:45:27.493Z,6.95
2023-02-28T04:47:59.768Z,7.50
2023-02-28T04:50:33.557Z,6.88
2023-02-28T04:53:05.694Z,6.55
2023-02-28T04:55:37.598Z,6.90
2023-02-28T04:58:10.099Z,6.45
2023-02-28T05:00:42.154Z,6.30
2023-02-28T05:03:14.143Z,8.07
2023-02-28T05:05:46.086Z,7.22
2023-02-28T05:08:18.036Z,7.35
2023-02-28T05:10:50.012Z,7.53
2023-02-28T05:13:24.935Z,6.75
2023-02-28T05:15:57.458Z,6.80
2023-02-28T05:18:30.303Z,7.47
2023-02-28T05:21:04.668Z,7.70
2023-02-28T05:23:36.849Z,7.60
2023-02-28T05:26:09.212Z,7.13
2023-02-28T05:28:41.183Z,6.95
2023-02-28T05:31:13.670Z,7.07
2023-02-28T05:33:45.837Z,7.32
2023-02-28T05:36:18.122Z,7.15
2023-02-28T05:38:51.559Z,7.63
2023-02-28T05:41:29.545Z,7.38
2023-02-28T05:44:02.403Z,7.35
2023-02-28T05:46:34.485Z,7.35
2023-02-28T05:49:06.623Z,7.65
2023-02-28T05:51:43.053Z,7.72
2023-02-28T05:54:17.053Z,7.65
2023-02-28T05:56:49.034Z,8.15
2023-02-28T05:59:20.982Z,7.72
2023-02-28T06:01:54.258Z,7.75
2023-02-28T06:04:31.986Z,7.25
2023-02-28T06:07:04.449Z,8.90
2023-02-28T06:09:37.179Z,7.57
2023-02-28T06:12:14.495Z,7.75
2023-02-28T06:14:46.861Z,9.48
2023-02-28T06:17:19.172Z,8.25
2023-02-28T06:19:51.237Z,7.35
2023-02-28T06:22:23.441Z,7.60
2023-02-28T06:24:56.194Z,8.20
2023-02-28T06:27:28.183Z,7.32
2023-02-28T06:30:00.544Z,7.32
2023-02-28T06:32:32.605Z,7.05
2023-02-28T06:35:05.615Z,8.00
2023-02-28T06:37:39.126Z,7.90
2023-02-28T06:40:14.107Z,8.45
2023-02-28T06:42:46.087Z,8.32
2023-02-28T06:45:18.279Z,8.55
2023-02-28T06:47:53.140Z,7.85
2023-02-28T06:50:25.099Z,8.77
2023-02-28T06:52:57.141Z,6.90
2023-02-28T06:55:30.759Z,8.00
2023-02-28T06:58:02.848Z,7.75
2023-02-28T07:00:35.290Z,7.20
2023-02-28T07:03:07.241Z,8.32
2023-02-28T07:05:40.556Z,8.48
2023-02-28T07:08:12.670Z,8.13
2023-02-28T07:10:45.170Z,9.15
2023-02-28T07:13:17.169Z,10.48
2023-02-28T07:16:05.791Z,8.90
2023-02-28T07:18:38.686Z,8.30
2023-02-28T07:21:12.442Z,8.15
2023-02-28T07:23:44.506Z,7.63
2023-02-28T07:26:20.409Z,8.38
2023-02-28T07:28:52.425Z,7.45
2023-02-28T07:31:25.134Z,7.70
2023-02-28T07:33:57.536Z,8.52
2023-02-28T07:36:29.607Z,8.20
2023-02-28T07:39:01.650Z,7.82
2023-02-28T07:41:35.157Z,7.55
2023-02-28T07:44:07.195Z,9.07
2023-02-28T07:46:39.568Z,8.10
2023-02-28T07:49:11.634Z,7.78
2023-02-28T07:51:43.824Z,9.27
2023-02-28T07:54:15.771Z,7.80
2023-02-28T07:56:47.743Z,8.05
2023-02-28T07:59:19.750Z,8.32
2023-02-28T08:01:52.408Z,8.25
2023-02-28T08:04:24.410Z,10.60
2023-02-28T08:06:57.454Z,8.75
2023-02-28T08:09:30.954Z,8.10
2023-02-28T08:12:02.929Z,7.32
2023-02-28T08:14:35.641Z,7.38
2023-02-28T08:17:07.969Z,7.32
2023-02-28T08:19:40.242Z,6.35
2023-02-28T08:22:15.100Z,6.80
2023-02-28T08:24:47.193Z,5.75
2023-02-28T08:27:20.020Z,6.38
2023-02-28T08:29:52.068Z,6.78
2023-02-28T08:32:29.713Z,5.57
2023-02-28T08:35:02.916Z,5.55
2023-02-28T08:37:34.965Z,6.88
2023-02-28T08:40:08.216Z,5.05
2023-02-28T08:42:40.248Z,5.57
2023-02-28T08:45:13.598Z,5.75
2023-02-28T08:47:45.561Z,5.35
2023-02-28T08:50:17.633Z,4.93
2023-02-28T08:52:49.790Z,4.38
2023-02-28T08:55:21.766Z,4.40
2023-02-28T08:57:54.686Z,4.28
2023-02-28T09:00:26.726Z,4.88
2023-02-28T09:02:58.876Z,3.85
2023-02-28T09:05:31.045Z,4.07
2023-02-28T09:08:03.038Z,3.80
2023-02-28T09:10:36.071Z,3.80
2023-02-28T09:13:08.232Z,3.78
2023-02-28T09:15:40.710Z,4.03
2023-02-28T09:18:12.961Z,4.03
2023-02-28T09:20:45.680Z,3.45
2023-02-28T09:23:18.191Z,3.00
2023-02-28T09:25:55.647Z,3.38
2023-02-28T09:28:28.109Z,3.60
2023-02-28T09:31:00.321Z,3.22
2023-02-28T09:33:32.357Z,3.22
2023-02-28T09:36:05.091Z,3.28
2023-02-28T09:38:37.282Z,3.35
2023-02-28T09:41:16.250Z,3.60
2023-02-28T09:43:57.141Z,2.42
2023-02-28T09:46:40.896Z,2.42
2023-02-28T09:49:19.833Z,2.60
2023-02-28T09:51:59.820Z,2.67
2023-02-28T09:54:33.964Z,2.90
2023-02-28T09:57:08.169Z,2.28
2023-02-28T10:00:13.272Z,2.30
2023-02-28T10:03:19.987Z,2.70
2023-02-28T10:06:04.695Z,2.80
2023-02-28T10:09:14.516Z,2.90
2023-02-28T10:14:23.295Z,2.55
2023-02-28T10:17:03.278Z,2.25
2023-02-28T10:19:46.017Z,1.98
2023-02-28T10:22:31.122Z,2.45
2023-02-28T10:25:19.512Z,2.75
2023-02-28T10:28:02.248Z,2.30
2023-02-28T10:30:34.344Z,1.95
2023-02-28T10:33:06.423Z,2.30
2023-02-28T10:35:38.604Z,2.63
2023-02-28T10:38:24.877Z,2.22
2023-02-28T10:41:35.804Z,1.90
2023-02-28T10:44:34.480Z,1.63
2023-02-28T10:47:06.548Z,1.20
2023-02-28T10:49:50.622Z,1.30
2023-02-28T10:52:40.674Z,1.38
2023-02-28T10:55:28.723Z,1.10
2023-02-28T10:58:01.583Z,0.90
2023-02-28T11:00:36.444Z,1.80
2023-02-28T11:03:37.256Z,1.10
2023-02-28T11:06:35.121Z,1.85
2023-02-28T11:09:26.819Z,1.60
2023-02-28T11:11:59.067Z,1.80
2023-02-28T11:14:44.466Z,2.00
2023-02-28T11:17:28.558Z,2.53
2023-02-28T11:20:11.624Z,2.15
2023-02-28T11:22:46.559Z,1.90
2023-02-28T11:25:27.500Z,2.47
2023-02-28T11:28:06.139Z,2.50
2023-02-28T11:30:43.134Z,2.20
2023-02-28T11:33:30.824Z,2.30
2023-02-28T11:36:14.739Z,2.28
2023-02-28T11:38:47.930Z,2.08
2023-02-28T11:42:15.569Z,2.08
2023-02-28T11:45:38.887Z,2.30
2023-02-28T11:48:55.167Z,2.42
2023-02-28T11:51:36.983Z,2.47
2023-02-28T11:54:55.136Z,2.58
2023-02-28T11:57:55.566Z,5.05
2023-02-28T12:00:41.621Z,2.40
2023-02-28T12:03:57.585Z,2.42
2023-02-28T12:06:38.964Z,1.85
2023-02-28T12:09:29.692Z,2.20
2023-02-28T12:12:51.795Z,2.22
2023-02-28T12:15:42.962Z,2.50
2023-02-28T12:18:55.261Z,2.58
2023-02-28T12:21:52.205Z,2.40
2023-02-28T12:25:01.311Z,2.03
2023-02-28T12:27:39.314Z,2.42
2023-02-28T12:30:35.441Z,2.22
2023-02-28T12:33:10.923Z,2.20
2023-02-28T12:35:56.902Z,2.38
2023-02-28T12:38:36.321Z,2.78
2023-02-28T12:41:35.000Z,2.70
2023-02-28T12:44:22.709Z,2.80
2023-02-28T12:47:00.848Z,2.30
2023-02-28T12:49:50.747Z,2.63
2023-02-28T12:52:54.760Z,2.17
2023-02-28T12:56:11.402Z,3.53
2023-02-28T12:58:52.601Z,2.55
2023-02-28T13:01:29.264Z,2.50
2023-02-28T13:04:35.274Z,2.30
2023-02-28T13:07:42.294Z,2.13
2023-02-28T13:10:17.286Z,1.80
2023-02-28T13:12:55.101Z,1.80
2023-02-28T13:15:29.824Z,2.20
2023-02-28T13:18:01.978Z,2.35
2023-02-28T13:20:48.857Z,2.22
2023-02-28T13:23:48.152Z,1.98
2023-02-28T13:26:20.241Z,1.90
2023-02-28T13:29:12.025Z,2.17
2023-02-28T13:32:09.633Z,2.10
2023-02-28T13:34:53.765Z,2.05
2023-02-28T13:37:25.809Z,2.05
2023-02-28T13:40:10.966Z,2.25
2023-02-28T13:42:50.822Z,3.03
2023-02-28T13:45:28.932Z,1.85
2023-02-28T13:48:26.743Z,2.38
2023-02-28T13:50:59.237Z,2.00
2023-02-28T13:53:53.538Z,2.20
2023-02-28T13:57:14.594Z,2.80
2023-02-28T14:00:22.849Z,1.92
2023-02-28T14:03:35.589Z,2.30
2023-02-28T14:06:11.602Z,1.98
2023-02-28T14:09:00.316Z,2.20
2023-02-28T14:11:39.322Z,2.05
2023-02-28T14:14:37.227Z,2.03
2023-02-28T14:17:18.380Z,2.35
2023-02-28T14:19:51.373Z,2.03
2023-02-28T14:22:51.409Z,2.17
2023-02-28T14:25:46.877Z,2.42
2023-02-28T14:29:01.545Z,2.30
2023-02-28T14:31:45.603Z,2.38
2023-02-28T14:34:28.588Z,2.70
2023-02-28T14:37:03.838Z,2.00
2023-02-28T14:39:37.964Z,2.20
2023-02-28T14:42:45.003Z,2.80
2023-02-28T14:45:24.273Z,2.38
2023-02-28T14:47:57.703Z,2.30
2023-02-28T14:50:36.852Z,2.50
2023-02-28T14:53:19.960Z,2.60
2023-02-28T14:55:53.926Z,2.53
2023-02-28T14:58:31.635Z,2.60
2023-02-28T15:01:05.245Z,2.70
2023-02-28T15:03:40.450Z,2.42
2023-02-28T15:06:18.598Z,2.30
2023-02-28T15:09:10.249Z,2.70
2023-02-28T15:11:43.858Z,2.70
2023-02-28T15:14:22.935Z,2.40
2023-02-28T15:17:09.459Z,2.85
2023-02-28T15:19:51.533Z,2.47
2023-02-28T15:22:37.390Z,2.97
2023-02-28T15:25:15.134Z,2.80
2023-02-28T15:27:52.506Z,2.85
2023-02-28T15:30:31.270Z,2.70
2023-02-28T15:33:12.564Z,2.50
2023-02-28T15:35:49.066Z,3.15
2023-02-28T15:38:28.925Z,3.17
2023-02-28T15:41:00.953Z,2.17
2023-02-28T15:43:38.538Z,2.63
2023-02-28T15:46:14.448Z,2.28
2023-02-28T15:48:55.769Z,2.80
2023-02-28T15:51:37.329Z,2.53
2023-02-28T15:54:16.639Z,2.40
2023-02-28T15:56:54.381Z,9.70
2023-02-28T15:59:30.126Z,3.90
2023-02-28T16:02:23.188Z,3.05
2023-02-28T16:05:28.838Z,2.40
2023-02-28T16:08:14.689Z,2.50
2023-02-28T16:10:46.891Z,2.60
2023-02-28T16:13:19.046Z,2.92
2023-02-28T16:15:52.471Z,2.97
2023-02-28T16:18:25.532Z,2.85
2023-02-28T16:21:00.845Z,2.55
2023-02-28T16:23:32.790Z,2.50
2023-02-28T16:26:06.582Z,2.63
2023-02-28T16:28:43.011Z,2.80
2023-02-28T16:31:17.660Z,3.40
2023-02-28T16:33:50.012Z,2.92
2023-02-28T16:36:27.504Z,2.95
2023-02-28T16:38:59.593Z,2.78
2023-02-28T16:41:32.251Z,2.67
2023-02-28T16:44:15.600Z,3.08
2023-02-28T16:46:47.865Z,2.75
2023-02-28T16:49:19.966Z,2.78
2023-02-28T16:51:52.014Z,2.47
2023-02-28T16:54:24.106Z,2.80
2023-02-28T16:56:56.161Z,3.50
2023-02-28T16:59:29.642Z,3.50
2023-02-28T17:02:20.005Z,2.75
2023-02-28T17:04:52.063Z,2.90
2023-02-28T17:07:24.084Z,3.60
2023-02-28T17:09:56.181Z,3.50
2023-02-28T17:12:28.529Z,3.03
2023-02-28T17:15:00.663Z,3.15
2023-02-28T17:17:33.160Z,3.60
2023-02-28T17:20:06.981Z,3.55
2023-02-28T17:22:39.916Z,3.42
2023-02-28T17:25:12.249Z,3.70
2023-02-28T17:27:44.574Z,3.83
2023-02-28T17:30:19.538Z,3.42
2023-02-28T17:32:51.870Z,4.57
2023-02-28T17:35:25.477Z,4.72
2023-02-28T17:37:57.701Z,5.00
2023-02-28T17:40:29.913Z,4.35
2023-02-28T17:43:02.381Z,4.18
2023-02-28T17:45:36.753Z,5.28
2023-02-28T17:48:12.372Z,4.13
2023-02-28T17:50:44.561Z,4.43
2023-02-28T17:53:16.640Z,4.63
2023-02-28T17:55:48.609Z,4.25
2023-02-28T17:58:20.642Z,4.97
2023-02-28T18:00:55.552Z,4.30
2023-02-28T18:03:29.244Z,4.28
2023-02-28T18:06:01.990Z,4.32
2023-02-28T18:08:36.379Z,3.92
2023-02-28T18:11:18.181Z,4.47
2023-02-28T18:13:54.130Z,4.50
2023-02-28T18:16:27.689Z,4.38
2023-02-28T18:18:59.918Z,4.53
2023-02-28T18:21:32.265Z,4.28
2023-02-28T18:24:04.967Z,4.85
2023-02-28T18:26:38.788Z,5.03
2023-02-28T18:29:20.272Z,4.53
2023-02-28T18:31:54.010Z,4.68
2023-02-28T18:34:26.685Z,5.10
2023-02-28T18:36:58.733Z,4.47
2023-02-28T18:39:31.657Z,4.45
2023-02-28T18:42:03.948Z,4.75
2023-02-28T18:44:38.200Z,5.25
2023-02-28T18:47:11.096Z,4.95
2023-02-28T18:49:43.124Z,5.95
2023-02-28T18:52:16.481Z,6.43
2023-02-28T18:54:48.731Z,5.30
2023-02-28T18:57:20.767Z,6.38
2023-02-28T18:59:52.960Z,5.50
2023-02-28T19:02:25.086Z,5.60
2023-02-28T19:04:57.260Z,6.75
2023-02-28T19:07:29.337Z,5.07
2023-02-28T19:10:01.540Z,5.63
2023-02-28T19:12:38.111Z,5.13
2023-02-28T19:15:11.993Z,4.90
2023-02-28T19:17:44.330Z,4.45
2023-02-28T19:20:17.102Z,5.35
2023-02-28T19:22:49.182Z,5.65
2023-02-28T19:25:25.250Z,6.05
2023-02-28T19:28:00.693Z,7.00
2023-02-28T19:30:32.852Z,5.55
2023-02-28T19:33:05.324Z,6.82
2023-02-28T19:35:40.441Z,6.80
2023-02-28T19:38:13.119Z,6.05
2023-02-28T19:40:49.416Z,5.90
2023-02-28T19:43:21.674Z,5.80
2023-02-28T19:45:53.726Z,7.32
2023-02-28T19:48:28.133Z,7.78
2023-02-28T19:51:12.903Z,7.70
2023-02-28T19:53:45.122Z,12.23
2023-02-28T19:56:17.346Z,12.38
2023-02-28T19:58:49.664Z,10.73
2023-02-28T20:01:21.932Z,11.85
2023-02-28T20:03:53.932Z,14.00
2023-02-28T20:06:26.109Z,12.10
2023-02-28T20:08:58.381Z,14.50
2023-02-28T20:11:30.898Z,15.60
2023-02-28T20:14:05.472Z,14.88
2023-02-28T20:16:38.018Z,14.70
2023-02-28T20:19:10.334Z,13.25
2023-02-28T20:21:44.147Z,11.82
2023-02-28T20:24:16.584Z,11.52
2023-02-28T20:26:48.923Z,10.48
2023-02-28T20:29:21.181Z,13.48
2023-02-28T20:31:53.728Z,13.07
2023-02-28T20:34:25.873Z,10.75
2023-02-28T20:36:58.940Z,12.63
2023-02-28T20:39:31.314Z,16.40
2023-02-28T20:42:03.501Z,16.02
2023-02-28T20:44:35.775Z,12.60
2023-02-28T20:47:07.977Z,11.50
2023-02-28T20:49:39.971Z,11.38
2023-02-28T20:52:12.047Z,11.13
2023-02-28T20:54:44.509Z,12.80
2023-02-28T20:57:16.538Z,12.90
2023-02-28T20:59:51.318Z,13.15
2023-02-28T21:02:23.544Z,13.50
2023-02-28T21:04:55.692Z,12.73
2023-02-28T21:07:30.883Z,11.43
2023-02-28T21:10:03.301Z,13.55
2023-02-28T21:12:35.415Z,12.63
2023-02-28T21:15:08.490Z,12.73
2023-02-28T21:17:40.470Z,11.55
2023-02-28T21:20:12.729Z,12.15
2023-02-28T21:22:45.117Z,11.32
2023-02-28T21:25:17.305Z,10.60
2023-02-28T21:27:49.365Z,11.63
2023-02-28T21:30:22.548Z,11.38
2023-02-28T21:32:54.592Z,10.32
2023-02-28T21:35:27.089Z,11.30
2023-02-28T21:38:01.548Z,11.15
2023-02-28T21:40:34.421Z,11.25
2023-02-28T21:43:06.891Z,10.73
2023-02-28T21:45:39.087Z,11.45
2023-02-28T21:48:11.151Z,11.02
2023-02-28T21:50:43.269Z,11.57
2023-02-28T21:53:15.576Z,11.70
2023-02-28T21:55:47.683Z,13.20
2023-02-28T21:58:19.719Z,12.13
2023-02-28T22:00:51.819Z,11.75
2023-02-28T22:03:23.875Z,12.00
2023-02-28T22:05:55.976Z,12.27
2023-02-28T22:08:28.362Z,12.60
2023-02-28T22:11:03.734Z,12.40
2023-02-28T22:13:37.633Z,13.80
2023-02-28T22:16:13.831Z,12.27
2023-02-28T22:18:46.991Z,12.52
2023-02-28T22:21:20.115Z,12.95
2023-02-28T22:23:52.490Z,12.50
2023-02-28T22:26:24.681Z,12.07
2023-02-28T22:28:57.077Z,14.25
2023-02-28T22:31:32.609Z,12.15
2023-02-28T22:34:08.833Z,13.38
2023-02-28T22:36:43.262Z,12.80
2023-02-28T22:39:15.372Z,13.38
2023-02-28T22:41:47.468Z,12.73
2023-02-28T22:44:19.533Z,14.70
2023-02-28T22:46:55.275Z,11.50
2023-02-28T22:49:27.399Z,12.27
2023-02-28T22:51:59.411Z,14.00
2023-02-28T22:54:31.524Z,14.93
2023-02-28T22:57:06.580Z,15.27
2023-02-28T22:59:38.724Z,15.60
2023-02-28T23:02:10.805Z,14.93
2023-02-28T23:04:46.691Z,13.88
2023-02-28T23:07:18.685Z,14.45
2023-02-28T23:09:51.325Z,14.60
2023-02-28T23:12:24.383Z,14.82
2023-02-28T23:14:57.563Z,15.00
2023-02-28T23:17:32.359Z,12.73
2023-02-28T23:20:04.860Z,13.13
2023-02-28T23:22:36.928Z,11.38
2023-02-28T23:25:09.238Z,11.57
2023-02-28T23:27:41.851Z,11.68
2023-02-28T23:30:17.995Z,11.52
2023-02-28T23:32:50.929Z,13.60
2023-02-28T23:35:23.069Z,11.95
2023-02-28T23:37:58.424Z,12.30
2023-02-28T23:40:30.520Z,11.98
2023-02-28T23:43:02.880Z,12.00
2023-02-28T23:45:35.079Z,13.70
2023-02-28T23:48:07.388Z,12.63
2023-02-28T23:50:39.511Z,11.05
2023-02-28T23:53:11.521Z,11.40
2023-02-28T23:55:47.803Z,11.27
2023-02-28T23:58:19.815Z,10.98
